Time;durP1;ratioP1;P1;durP2;ratioP2;P2;SDS_P1;SDS_P2;PMS_P1;PMS_P2;Temp;Humidity;BMP_temperature;BMP_pressure;BME280_temperature;BME280_humidity;BME280_pressure;Samples;Min_cycle;Max_cycle;Signal;HPM_P1;HPM_P2
2022/01/07 00:01:43;;;;;;;58.13;18.65;;;-4.30;99.90;;;-4.56;65.07;99188.41;4975701;28;20077;-80
2022/01/07 00:04:09;;;;;;;48.92;17.85;;;-4.30;99.90;;;-4.63;65.06;99196.22;4959076;28;20078;-80
2022/01/07 00:06:34;;;;;;;43.28;18.17;;;-4.40;99.90;;;-4.69;65.65;99194.22;4990257;28;20604;-80
2022/01/07 00:09:01;;;;;;;59.63;21.73;;;-4.40;99.90;;;-4.54;65.85;99198.84;4961731;28;20478;-80
2022/01/07 00:11:26;;;;;;;63.15;21.30;;;-4.40;99.90;;;-4.69;65.86;99198.69;4980939;28;20076;-81
2022/01/07 00:13:52;;;;;;;59.92;23.67;;;-4.50;99.90;;;-4.71;66.35;99208.59;4974296;28;20046;-80
2022/01/07 00:16:19;;;;;;;63.90;23.50;;;-4.50;99.90;;;-4.69;66.47;99204.81;4967221;28;20538;-80
2022/01/07 00:18:46;;;;;;;55.78;22.17;;;-4.50;99.90;;;-4.68;66.09;99211.78;4977836;28;20070;-80
2022/01/07 00:21:12;;;;;;;56.65;23.58;;;-4.50;99.90;;;-4.82;65.88;99210.59;4978096;28;20485;-80
2022/01/07 00:23:38;;;;;;;64.05;25.95;;;-4.50;99.90;;;-4.87;65.40;99214.72;4956489;28;20214;-80
2022/01/07 00:26:04;;;;;;;55.90;23.05;;;-4.60;99.90;;;-4.98;65.01;99220.34;4971241;28;20502;-80
2022/01/07 00:28:30;;;;;;;80.18;27.20;;;-4.70;99.90;;;-5.09;64.89;99221.47;4957304;28;20120;-80
2022/01/07 00:30:56;;;;;;;72.13;23.73;;;-4.70;99.90;;;-5.23;64.82;99215.00;4974949;28;20045;-80
2022/01/07 00:33:25;;;;;;;58.75;22.83;;;-4.90;99.90;;;-5.32;65.09;99216.78;4972610;28;20093;-80
2022/01/07 00:35:52;;;;;;;55.58;23.45;;;-5.00;99.90;;;-5.34;65.45;99215.28;4970321;28;20065;-80
2022/01/07 00:38:18;;;;;;;74.35;24.60;;;-5.00;99.90;;;-5.38;65.20;99216.63;4978152;28;20188;-80
2022/01/07 00:40:44;;;;;;;60.25;24.50;;;-5.10;99.90;;;-5.47;64.89;99215.75;4970215;28;20065;-80
2022/01/07 00:43:10;;;;;;;56.30;22.48;;;-5.10;99.90;;;-5.52;65.02;99221.56;4970932;28;20043;-80
2022/01/07 00:45:36;;;;;;;72.20;23.98;;;-5.20;99.90;;;-5.59;65.19;99232.91;4971405;28;20076;-80
2022/01/07 00:48:02;;;;;;;58.95;22.67;;;-5.20;99.90;;;-5.63;65.59;99240.31;4941150;28;20727;-79
2022/01/07 00:50:29;;;;;;;56.38;23.92;;;-5.30;99.90;;;-5.69;65.53;99239.16;4956032;28;20043;-79
2022/01/07 00:52:56;;;;;;;56.70;22.83;;;-5.40;99.90;;;-5.73;65.93;99237.78;4938466;28;20086;-79
2022/01/07 00:55:22;;;;;;;59.10;24.80;;;-5.40;99.90;;;-5.73;66.30;99236.97;4951528;28;20070;-79
2022/01/07 00:57:48;;;;;;;74.97;28.00;;;-5.40;99.90;;;-5.68;66.55;99245.25;4951642;28;20549;-79
2022/01/07 01:00:17;;;;;;;68.10;28.73;;;-5.40;99.90;;;-5.64;66.35;99243.97;4938280;28;20077;-79
2022/01/07 01:02:44;;;;;;;71.88;24.42;;;-5.40;99.90;;;-5.67;66.12;99249.56;4986161;28;20070;-79
2022/01/07 01:05:11;;;;;;;56.25;22.88;;;-5.40;99.90;;;-5.73;66.38;99245.72;4937788;28;20057;-79
2022/01/07 01:07:37;;;;;;;63.88;27.13;;;-5.50;99.90;;;-5.77;66.08;99246.22;4938594;28;20557;-79
2022/01/07 01:10:07;;;;;;;59.85;23.83;;;-5.50;99.90;;;-5.81;66.38;99245.69;4935696;28;20043;-79
2022/01/07 01:12:34;;;;;;;57.58;25.98;;;-5.50;99.90;;;-5.82;66.21;99245.88;4937981;28;20117;-80
2022/01/07 01:15:01;;;;;;;56.28;25.30;;;-5.50;99.90;;;-5.90;66.09;99258.03;4937985;28;20558;-79
2022/01/07 01:17:27;;;;;;;78.18;28.90;;;-5.60;99.90;;;-5.96;66.02;99248.13;4934787;28;20156;-79
2022/01/07 01:19:53;;;;;;;60.47;22.67;;;-5.60;99.90;;;-6.04;66.26;99248.06;4935835;28;20050;-79
2022/01/07 01:22:19;;;;;;;69.38;26.20;;;-5.70;99.90;;;-6.03;66.67;99249.75;4969450;28;20108;-79
2022/01/07 01:24:45;;;;;;;69.00;27.33;;;-5.70;99.90;;;-6.11;66.56;99244.41;4970693;28;20446;-79
2022/01/07 01:27:11;;;;;;;75.32;28.15;;;-5.80;99.90;;;-6.14;66.43;99248.19;4972587;28;20096;-79
2022/01/07 01:29:38;;;;;;;81.30;29.20;;;-5.80;99.90;;;-6.18;66.68;99246.84;4956446;28;20133;-79
2022/01/07 01:32:04;;;;;;;78.90;28.92;;;-5.80;99.90;;;-6.23;66.17;99243.00;4968951;28;20502;-79
2022/01/07 01:34:30;;;;;;;79.20;28.73;;;-5.90;99.90;;;-6.28;65.97;99251.41;4971261;28;20053;-79
2022/01/07 01:36:56;;;;;;;62.17;26.25;;;-5.90;99.90;;;-6.32;66.19;99250.03;4966859;28;20039;-79
2022/01/07 01:39:25;;;;;;;76.95;31.23;;;-5.90;99.90;;;-6.34;65.92;99252.81;4968531;28;20090;-79
2022/01/07 01:41:51;;;;;;;80.95;30.85;;;-5.90;99.90;;;-6.36;65.88;99249.53;4947322;29;20135;-79
2022/01/07 01:44:18;;;;;;;81.05;29.50;;;-6.00;99.90;;;-6.36;66.27;99249.53;4912860;29;20106;-79
2022/01/07 01:46:44;;;;;;;86.47;32.33;;;-6.00;99.90;;;-6.41;66.39;99251.81;4947153;29;20072;-79
2022/01/07 01:49:10;;;;;;;84.57;34.53;;;-6.00;99.90;;;-6.46;66.12;99242.66;4915864;29;20044;-79
2022/01/07 01:51:36;;;;;;;68.53;27.58;;;-6.10;99.90;;;-6.50;66.20;99243.97;4934284;29;20122;-79
2022/01/07 01:54:02;;;;;;;93.43;37.53;;;-6.10;99.90;;;-6.61;65.97;99237.13;4918265;29;20382;-79
2022/01/07 01:56:28;;;;;;;94.25;33.67;;;-6.20;99.90;;;-6.64;66.98;99248.84;4931797;29;20056;-79
2022/01/07 01:58:54;;;;;;;85.05;33.40;;;-6.10;99.90;;;-6.61;67.01;99243.25;4917937;29;20047;-79
2022/01/07 02:01:20;;;;;;;82.65;32.35;;;-6.20;99.90;;;-6.56;67.06;99230.41;4933725;29;20534;-79
2022/01/07 02:03:46;;;;;;;73.78;30.63;;;-6.20;99.90;;;-6.61;66.69;99245.06;4948034;28;20043;-80
2022/01/07 02:06:12;;;;;;;71.60;32.10;;;-6.20;99.90;;;-6.48;66.26;99232.28;4916116;29;20398;-79
2022/01/07 02:08:39;;;;;;;91.35;35.47;;;-6.20;99.90;;;-6.51;66.04;99239.66;4951551;28;20078;-79
2022/01/07 02:11:05;;;;;;;82.15;33.10;;;-6.30;99.90;;;-6.57;65.98;99246.38;4933689;29;20410;-79
2022/01/07 02:13:31;;;;;;;77.97;28.40;;;-6.20;99.90;;;-6.61;66.07;99224.78;4949976;28;20047;-79
2022/01/07 02:15:57;;;;;;;66.90;28.83;;;-6.30;99.90;;;-6.61;65.69;99224.78;4916473;29;20066;-79
2022/01/07 02:18:23;;;;;;;87.38;34.88;;;-6.30;99.90;;;-6.65;65.38;99233.97;4947664;28;20515;-79
2022/01/07 02:20:49;;;;;;;92.75;33.20;;;-6.30;99.90;;;-6.76;66.04;99228.94;4929310;29;20065;-79
2022/01/07 02:23:17;;;;;;;76.07;29.63;;;-6.40;99.90;;;-6.82;66.13;99233.00;4946654;28;20043;-79
2022/01/07 02:25:44;;;;;;;70.88;28.30;;;-6.40;99.90;;;-6.82;65.82;99226.88;4934067;29;20414;-79
2022/01/07 02:28:12;;;;;;;74.93;29.23;;;-6.50;99.90;;;-6.88;65.89;99232.78;4930697;29;20122;-80
2022/01/07 02:30:37;;;;;;;76.88;29.83;;;-6.50;99.90;;;-6.95;65.46;99222.00;4949421;29;20427;-80
2022/01/07 02:33:03;;;;;;;83.60;31.70;;;-6.60;99.90;;;-7.05;65.78;99226.50;4931127;29;20067;-80
2022/01/07 02:35:32;;;;;;;68.38;30.10;;;-6.70;99.90;;;-7.11;65.86;99222.69;4932891;29;20071;-80
2022/01/07 02:37:58;;;;;;;80.00;31.20;;;-6.70;99.90;;;-7.12;65.70;99226.31;4900110;28;20067;-80
2022/01/07 02:40:24;;;;;;;86.07;33.72;;;-6.70;99.90;;;-7.17;65.43;99211.88;4949837;28;20046;-79
2022/01/07 02:42:51;;;;;;;70.53;30.23;;;-6.80;99.90;;;-7.18;65.73;99221.63;4968386;28;20384;-80
2022/01/07 02:45:16;;;;;;;82.82;29.63;;;-6.80;99.90;;;-7.23;65.80;99216.78;4953128;28;20118;-80
2022/01/07 02:47:52;;;;;;;67.10;28.15;;;-6.80;99.90;;;-7.25;65.84;99225.81;4948631;28;20177;-80
2022/01/07 02:50:21;;;;;;;67.18;26.88;;;-6.80;99.90;;;-7.29;65.79;99225.31;4939560;28;20486;-80
2022/01/07 02:52:47;;;;;;;73.95;31.33;;;-6.90;99.90;;;-7.30;65.57;99228.94;4985059;28;20125;-80
2022/01/07 02:55:13;;;;;;;87.43;32.50;;;-6.90;99.90;;;-7.33;65.40;99242.38;4965360;28;20042;-80
2022/01/07 02:57:39;;;;;;;72.95;30.27;;;-6.90;99.90;;;-7.43;65.23;99245.09;4966452;28;20169;-79
2022/01/07 03:00:06;;;;;;;73.97;27.08;;;-7.00;99.90;;;-7.49;65.10;99239.56;4947678;28;20082;-79
2022/01/07 03:02:32;;;;;;;65.47;27.27;;;-7.00;99.90;;;-7.51;65.87;99242.34;4966168;28;20055;-79
2022/01/07 03:04:58;;;;;;;77.30;33.22;;;-7.10;99.90;;;-7.56;66.06;99243.78;4951081;28;20051;-79
2022/01/07 03:07:24;;;;;;;77.10;32.33;;;-7.10;99.90;;;-7.56;66.13;99241.13;4969686;28;20118;-79
2022/01/07 03:09:50;;;;;;;85.50;30.83;;;-7.20;99.90;;;-7.60;65.47;99239.78;4965775;28;20493;-79
2022/01/07 03:12:16;;;;;;;79.47;31.15;;;-7.20;99.90;;;-7.63;65.13;99246.19;4946005;28;20050;-79
2022/01/07 03:14:42;;;;;;;78.90;30.00;;;-7.20;99.90;;;-7.63;65.31;99243.53;4954763;28;20039;-79
2022/01/07 03:17:08;;;;;;;67.90;27.83;;;-7.20;99.90;;;-7.70;64.96;99245.91;4951082;28;20066;-79
2022/01/07 03:19:34;;;;;;;86.28;32.03;;;-7.20;99.90;;;-7.70;65.86;99235.38;4965387;28;20039;-79
2022/01/07 03:22:00;;;;;;;68.18;26.40;;;-7.30;99.90;;;-7.71;65.90;99243.41;4968292;28;20070;-79
2022/01/07 03:24:26;;;;;;;69.00;29.15;;;-7.30;99.90;;;-7.70;66.56;99242.47;4949617;28;20517;-79
2022/01/07 03:26:52;;;;;;;61.72;26.25;;;-7.30;99.90;;;-7.71;66.20;99243.41;4967933;28;20129;-79
2022/01/07 03:29:18;;;;;;;69.65;28.58;;;-7.30;99.90;;;-7.69;66.81;99242.31;4958216;28;20541;-79
2022/01/07 03:31:44;;;;;;;78.45;29.77;;;-7.20;99.90;;;-7.67;67.24;99236.91;4957017;28;20086;-79
2022/01/07 03:34:10;;;;;;;69.80;28.42;;;-7.30;99.90;;;-7.69;67.15;99252.00;4952768;28;20043;-79
2022/01/07 03:36:36;;;;;;;73.95;28.25;;;-7.30;99.90;;;-7.68;66.81;99245.78;4951673;28;20053;-79
2022/01/07 03:39:03;;;;;;;68.15;24.85;;;-7.30;99.90;;;-7.74;66.40;99247.19;4936621;28;20071;-79
2022/01/07 03:41:29;;;;;;;67.90;27.95;;;-7.30;99.90;;;-7.73;66.07;99248.03;4970871;28;20050;-79
2022/01/07 03:43:55;;;;;;;73.18;28.38;;;-7.30;99.90;;;-7.72;66.28;99233.88;4968893;28;20553;-79
2022/01/07 03:46:21;;;;;;;74.55;30.42;;;-7.30;99.90;;;-7.67;65.95;99243.00;4952372;28;20530;-79
2022/01/07 03:48:47;;;;;;;72.97;29.67;;;-7.30;99.90;;;-7.76;65.84;99241.25;4951000;28;20249;-79
2022/01/07 03:51:13;;;;;;;64.57;27.23;;;-7.30;99.90;;;-7.74;66.44;99249.81;4954058;28;20502;-79
2022/01/07 03:53:39;;;;;;;77.80;30.65;;;-7.30;99.90;;;-7.78;66.36;99239.72;4983932;28;20067;-79
2022/01/07 03:56:05;;;;;;;76.60;30.58;;;-7.30;99.90;;;-7.83;65.26;99240.16;4969338;28;20129;-79
2022/01/07 03:58:31;;;;;;;72.95;29.67;;;-7.30;99.90;;;-7.86;65.69;99243.09;4950384;28;20051;-79
2022/01/07 04:00:57;;;;;;;70.88;28.58;;;-7.40;99.90;;;-7.90;65.09;99244.34;4941120;28;20486;-79
2022/01/07 04:03:23;;;;;;;89.65;31.42;;;-7.40;99.90;;;-7.87;64.59;99238.78;4954961;28;20423;-79
2022/01/07 04:05:49;;;;;;;65.40;25.77;;;-7.50;99.90;;;-7.94;65.17;99241.16;4953390;28;20070;-79
2022/01/07 04:08:15;;;;;;;83.90;36.03;;;-7.50;99.90;;;-8.03;65.11;99244.66;4969909;28;20118;-79
2022/01/07 04:10:41;;;;;;;81.57;34.78;;;-7.50;99.90;;;-8.01;65.54;99240.09;4969272;28;20043;-79
2022/01/07 04:13:07;;;;;;;84.97;34.63;;;-7.60;99.90;;;-7.99;65.98;99240.75;4983644;28;20066;-79
2022/01/07 04:15:33;;;;;;;87.65;35.67;;;-7.60;99.90;;;-7.92;66.79;99235.75;4951692;28;20042;-79
2022/01/07 04:17:59;;;;;;;78.70;33.17;;;-7.60;99.90;;;-7.96;66.55;99240.50;4954958;28;20053;-79
2022/01/07 04:20:31;;;;;;;77.68;30.15;;;-7.50;99.90;;;-7.94;66.23;99237.69;4970561;28;20047;-79
2022/01/07 04:22:57;;;;;;;83.25;32.70;;;-7.50;99.90;;;-7.94;66.08;99235.88;4967300;28;20092;-79
2022/01/07 04:25:23;;;;;;;64.43;26.83;;;-7.50;99.90;;;-7.97;66.18;99238.00;4968530;28;20066;-79
2022/01/07 04:28:01;;;;;;;61.67;26.65;;;-7.50;99.90;;;-8.00;66.12;99233.03;4956259;28;20438;-79
2022/01/07 04:30:31;;;;;;;68.78;26.88;;;-7.50;99.90;;;-8.05;65.85;99232.63;4965528;28;20130;-79
2022/01/07 04:32:57;;;;;;;88.18;30.15;;;-7.60;99.90;;;-8.12;65.44;99227.91;4962092;28;20559;-79
2022/01/07 04:35:23;;;;;;;66.68;28.23;;;-7.60;99.90;;;-8.09;65.33;99232.91;4950870;28;20537;-80
2022/01/07 04:37:49;;;;;;;69.55;28.38;;;-7.70;99.90;;;-8.12;65.36;99227.91;4951775;28;20043;-79
2022/01/07 04:40:16;;;;;;;83.18;32.80;;;-7.70;99.90;;;-8.22;64.91;99232.38;4951197;28;20061;-79
2022/01/07 04:42:42;;;;;;;68.20;29.75;;;-7.80;99.90;;;-8.28;65.59;99232.16;4954839;28;20395;-80
2022/01/07 04:45:08;;;;;;;64.82;26.58;;;-7.80;99.90;;;-8.32;65.12;99236.84;4935305;28;20118;-79
2022/01/07 04:47:36;;;;;;;59.85;23.92;;;-7.80;99.90;;;-8.32;64.95;99239.47;4952696;28;20074;-79
2022/01/07 04:50:14;;;;;;;74.55;30.70;;;-7.90;99.90;;;-8.35;65.05;99227.44;4955222;28;20066;-79
2022/01/07 04:52:44;;;;;;;62.53;28.00;;;-7.90;99.90;;;-8.38;64.82;99230.34;4966099;28;20118;-79
2022/01/07 04:55:18;;;;;;;72.75;27.77;;;-7.90;99.90;;;-8.30;64.31;99237.53;4969421;28;20388;-79
2022/01/07 04:57:44;;;;;;;70.47;27.90;;;-7.90;99.90;;;-8.38;64.17;99235.63;4953947;28;20535;-79
2022/01/07 05:00:11;;;;;;;71.15;28.95;;;-7.90;99.90;;;-8.43;63.96;99232.63;4936859;28;20042;-79
2022/01/07 05:02:37;;;;;;;74.07;31.95;;;-8.00;99.90;;;-8.46;63.79;99232.06;4939224;28;20133;-79
2022/01/07 05:05:04;;;;;;;89.45;37.38;;;-8.00;99.90;;;-8.46;64.56;99237.34;4971303;28;20398;-79
2022/01/07 05:07:30;;;;;;;72.28;31.02;;;-8.00;99.90;;;-8.50;64.83;99236.78;4951625;28;20048;-79
2022/01/07 05:09:56;;;;;;;70.75;31.23;;;-8.00;99.90;;;-8.50;64.99;99239.41;4952481;28;20430;-79
2022/01/07 05:12:22;;;;;;;89.10;35.90;;;-8.00;99.90;;;-8.51;65.13;99240.38;4954994;28;20174;-79
2022/01/07 05:14:48;;;;;;;88.75;36.78;;;-8.00;99.90;;;-8.50;65.26;99247.28;4935993;28;20046;-79
2022/01/07 05:17:14;;;;;;;75.47;30.77;;;-8.00;99.90;;;-8.48;65.00;99248.00;4953451;28;20513;-79
2022/01/07 05:19:40;;;;;;;86.95;32.95;;;-8.00;99.90;;;-8.40;64.85;99244.66;4970740;28;20061;-79
2022/01/07 05:22:06;;;;;;;131.98;34.83;;;-8.00;99.90;;;-8.50;64.87;99244.66;4967376;28;20499;-79
2022/01/07 05:24:32;;;;;;;79.82;27.27;;;-8.00;99.90;;;-8.49;64.64;99242.88;4969504;28;20042;-79
2022/01/07 05:26:58;;;;;;;82.20;30.02;;;-8.00;99.90;;;-8.52;64.32;99242.19;4933407;28;20045;-79
2022/01/07 05:29:25;;;;;;;90.57;34.00;;;-8.00;99.90;;;-8.55;64.48;99246.88;4938519;28;20499;-79
2022/01/07 05:31:51;;;;;;;83.38;30.35;;;-8.00;99.90;;;-8.47;64.36;99243.56;4938256;28;20371;-79
2022/01/07 05:34:17;;;;;;;83.10;30.13;;;-8.10;99.90;;;-8.52;64.75;99247.47;4935650;28;20042;-79
2022/01/07 05:36:44;;;;;;;74.57;31.95;;;-8.10;99.90;;;-8.52;65.89;99242.19;4948223;28;20509;-79
2022/01/07 05:39:10;;;;;;;83.15;29.60;;;-8.10;99.90;;;-8.49;65.51;99245.53;4954637;28;20051;-79
2022/01/07 05:41:36;;;;;;;93.88;38.08;;;-8.00;99.90;;;-8.50;66.35;99249.94;4951391;28;20118;-79
2022/01/07 05:44:02;;;;;;;71.40;27.50;;;-8.00;99.90;;;-8.59;66.34;99248.97;4953594;28;20057;-79
2022/01/07 05:46:28;;;;;;;64.28;26.83;;;-8.10;99.90;;;-8.57;66.40;99236.53;4968380;28;20047;-79
2022/01/07 05:48:54;;;;;;;64.40;26.65;;;-8.00;99.90;;;-8.42;66.62;99236.91;4968028;28;20417;-79
2022/01/07 05:51:20;;;;;;;75.32;30.10;;;-8.00;99.90;;;-8.28;66.79;99232.97;4950337;28;20082;-79
2022/01/07 05:53:46;;;;;;;81.03;31.42;;;-7.90;99.90;;;-8.35;66.60;99230.06;4969012;28;20074;-79
2022/01/07 05:56:12;;;;;;;76.22;32.20;;;-7.80;99.90;;;-8.25;66.10;99239.75;4953765;28;20520;-80
2022/01/07 05:58:38;;;;;;;81.75;31.85;;;-7.80;99.90;;;-8.36;65.68;99233.69;4969223;28;20066;-79
2022/01/07 06:01:09;;;;;;;76.68;31.98;;;-7.80;99.90;;;-8.33;65.39;99228.13;4953799;28;20066;-79
2022/01/07 06:03:35;;;;;;;87.22;31.85;;;-7.80;99.90;;;-8.29;66.00;99226.06;4969263;28;20053;-79
2022/01/07 06:06:01;;;;;;;73.65;30.08;;;-7.80;99.90;;;-8.21;65.81;99223.53;4968432;28;20062;-80
2022/01/07 06:08:27;;;;;;;69.78;29.48;;;-7.80;99.90;;;-8.33;66.95;99230.75;4953331;28;20070;-79
2022/01/07 06:10:53;;;;;;;77.32;33.50;;;-7.80;99.90;;;-8.26;66.63;99225.75;4967955;28;20046;-80
2022/01/07 06:13:19;;;;;;;79.03;34.95;;;-7.80;99.90;;;-8.30;66.45;99225.19;4936640;28;20122;-80
2022/01/07 06:15:45;;;;;;;85.10;33.75;;;-7.80;99.90;;;-8.34;65.87;99223.03;4951512;28;20529;-80
2022/01/07 06:18:11;;;;;;;111.35;43.45;;;-7.80;99.90;;;-8.38;65.58;99224.28;4965461;28;20243;-80
2022/01/07 06:20:37;;;;;;;107.18;38.55;;;-7.80;99.90;;;-8.36;65.43;99230.22;4963707;28;20064;-80
2022/01/07 06:23:03;;;;;;;115.88;42.72;;;-7.80;99.90;;;-8.38;64.93;99232.97;4948374;28;20118;-80
2022/01/07 06:25:29;;;;;;;90.38;36.78;;;-7.80;99.90;;;-8.43;64.46;99237.88;4951365;28;20351;-80
2022/01/07 06:27:55;;;;;;;101.53;37.92;;;-7.80;99.90;;;-8.49;64.01;99235.81;4951311;28;20070;-80
2022/01/07 06:30:21;;;;;;;86.55;37.58;;;-7.90;99.90;;;-8.52;63.49;99234.31;4966448;28;20073;-80
2022/01/07 06:32:47;;;;;;;100.00;38.13;;;-8.00;99.90;;;-8.58;63.36;99234.84;4953532;28;20572;-79
2022/01/07 06:35:13;;;;;;;90.38;35.45;;;-8.00;99.90;;;-8.60;63.63;99230.69;4968678;28;20071;-80
2022/01/07 06:37:39;;;;;;;104.75;38.88;;;-8.00;99.90;;;-8.63;63.54;99236.25;4966680;28;20046;-80
2022/01/07 06:40:06;;;;;;;96.28;38.03;;;-8.10;99.90;;;-8.60;63.30;99228.94;4947169;28;20059;-80
2022/01/07 06:42:32;;;;;;;87.88;37.90;;;-8.10;99.90;;;-8.75;63.15;99232.94;4950369;28;20045;-80
2022/01/07 06:44:58;;;;;;;90.03;32.65;;;-8.10;99.90;;;-8.72;63.60;99232.66;4946365;28;20234;-79
2022/01/07 06:47:24;;;;;;;97.65;37.78;;;-8.10;99.90;;;-8.61;63.35;99232.50;4965766;28;20137;-80
2022/01/07 06:49:50;;;;;;;141.07;51.53;;;-8.10;99.90;;;-8.59;63.18;99230.56;4951708;28;20042;-79
2022/01/07 06:52:18;;;;;;;109.40;40.17;;;-8.20;99.90;;;-8.64;62.65;99232.78;4946361;28;20042;-82
2022/01/07 06:54:45;;;;;;;105.75;42.25;;;-8.10;99.90;;;-8.63;63.97;99231.81;4947397;28;20074;-80
2022/01/07 06:57:11;;;;;;;107.07;43.92;;;-8.10;99.90;;;-8.62;64.07;99232.66;4965805;28;20053;-80
2022/01/07 06:59:36;;;;;;;107.57;43.47;;;-8.00;99.90;;;-8.56;64.62;99229.47;4948572;28;20070;-80
2022/01/07 07:02:03;;;;;;;113.43;42.00;;;-8.00;99.90;;;-8.53;63.79;99234.44;4950444;28;20047;-80
2022/01/07 07:04:29;;;;;;;104.85;38.63;;;-8.00;99.90;;;-8.51;63.92;99229.88;4950465;28;20047;-79
2022/01/07 07:06:56;;;;;;;112.85;43.45;;;-8.00;99.90;;;-8.54;64.68;99225.72;4936194;28;20122;-80
2022/01/07 07:09:22;;;;;;;106.85;40.97;;;-7.90;99.90;;;-8.47;65.73;99219.88;4981431;28;20534;-79
2022/01/07 07:11:48;;;;;;;136.02;44.38;;;-7.80;99.90;;;-8.41;65.64;99214.06;4949249;28;20054;-79
2022/01/07 07:14:14;;;;;;;107.35;41.42;;;-7.90;99.90;;;-8.33;66.13;99219.41;4946184;28;20515;-79
2022/01/07 07:16:40;;;;;;;113.28;42.90;;;-7.80;99.90;;;-8.25;66.25;99211.63;4964410;28;20085;-79
2022/01/07 07:19:06;;;;;;;113.78;45.60;;;-7.70;99.90;;;-8.23;65.33;99220.22;4964222;28;20042;-79
2022/01/07 07:21:32;;;;;;;104.78;42.28;;;-7.60;99.90;;;-8.17;64.78;99205.63;4965925;28;20059;-79
2022/01/07 07:23:58;;;;;;;97.43;41.33;;;-7.60;99.90;;;-8.12;64.49;99220.03;4934034;28;20039;-79
2022/01/07 07:26:24;;;;;;;104.68;43.53;;;-7.50;99.90;;;-8.08;63.57;99216.13;4948972;28;20097;-79
2022/01/07 07:28:50;;;;;;;118.00;42.95;;;-7.50;99.90;;;-8.03;63.57;99215.72;4966066;28;20070;-79
2022/01/07 07:31:20;;;;;;;103.60;44.20;;;-7.50;99.90;;;-7.97;63.55;99212.50;4942667;28;20434;-79
2022/01/07 07:36:31;;;;;;;1183.57;146.45;;;-7.30;99.90;;;-7.82;64.82;99225.19;4961387;28;20138;-79
2022/01/07 07:39:06;;;;;;;151.43;62.80;;;-7.30;99.90;;;-7.66;65.33;99220.09;4969342;28;20571;-79
2022/01/07 07:41:33;;;;;;;128.80;56.13;;;-7.10;99.90;;;-7.55;65.47;99219.09;4974746;28;20409;-79
2022/01/07 07:43:59;;;;;;;148.45;54.42;;;-7.00;99.90;;;-7.44;65.52;99221.50;4966924;28;20067;-79
2022/01/07 07:46:27;;;;;;;126.45;50.05;;;-6.90;99.90;;;-7.31;65.54;99221.97;4950599;28;20068;-79
2022/01/07 07:48:54;;;;;;;145.63;56.75;;;-6.80;99.90;;;-7.25;65.41;99223.19;4965961;28;20042;-79
2022/01/07 07:51:20;;;;;;;193.50;65.38;;;-6.70;99.90;;;-7.16;64.73;99214.38;4957008;28;20298;-79
2022/01/07 07:53:46;;;;;;;220.52;83.88;;;-6.60;99.90;;;-7.03;64.30;99217.47;4952051;28;20042;-79
2022/01/07 07:56:13;;;;;;;212.25;71.10;;;-6.50;99.90;;;-6.95;64.37;99215.91;4954369;28;20038;-79
2022/01/07 07:58:40;;;;;;;181.93;72.75;;;-6.40;99.90;;;-6.89;63.86;99225.84;4968613;28;20138;-79
2022/01/07 08:01:06;;;;;;;139.50;59.75;;;-6.30;99.90;;;-6.81;64.35;99229.38;4951459;28;20043;-79
2022/01/07 08:03:32;;;;;;;146.27;60.50;;;-6.20;99.90;;;-6.69;64.76;99227.34;4952930;28;20081;-79
2022/01/07 08:05:58;;;;;;;165.85;69.57;;;-6.20;99.90;;;-6.61;65.11;99218.66;4952568;28;20129;-80
2022/01/07 08:08:24;;;;;;;198.18;72.82;;;-6.10;99.90;;;-6.54;65.15;99217.03;4954944;28;20034;-79
2022/01/07 08:10:54;;;;;;;176.77;71.78;;;-6.00;99.90;;;-6.43;64.40;99216.00;4975691;28;20520;-80
2022/01/07 08:13:30;;;;;;;181.05;68.45;;;-5.90;99.90;;;-6.31;65.20;99227.09;4969460;28;20458;-80
2022/01/07 08:16:06;;;;;;;179.40;73.78;;;-5.70;99.90;;;-6.15;65.83;99220.13;4953440;28;20070;-80
2022/01/07 08:18:40;;;;;;;165.90;68.78;;;-5.60;99.90;;;-5.99;66.05;99206.19;4973560;28;20097;-79
2022/01/07 08:21:08;;;;;;;159.02;72.53;;;-5.50;99.90;;;-5.87;66.20;99211.16;4970726;28;20030;-79
2022/01/07 08:23:36;;;;;;;164.52;67.55;;;-5.40;99.90;;;-5.63;65.42;99205.97;4974176;28;20824;-79
2022/01/07 08:26:03;;;;;;;160.68;64.70;;;-5.30;99.90;;;-5.54;65.63;99201.56;4956149;28;20593;-80
2022/01/07 08:28:36;;;;;;;161.23;67.57;;;-5.10;99.90;;;-5.47;65.74;99206.03;4945862;28;20043;-80
2022/01/07 08:36:16;;;;;;;166.02;68.38;;;-4.70;99.90;;;-5.17;65.36;99195.00;4971820;28;20121;-80
2022/01/07 08:38:45;;;;;;;177.80;67.93;;;-4.60;99.90;;;-5.08;65.22;99197.50;4953347;28;20478;-80
2022/01/07 08:41:11;;;;;;;167.90;67.38;;;-4.50;99.90;;;-4.98;65.29;99197.38;4990780;28;20038;-80
2022/01/07 08:43:38;;;;;;;161.50;65.38;;;-4.40;99.90;;;-4.87;65.10;99204.16;4953810;28;20510;-80
2022/01/07 08:46:06;;;;;;;146.57;57.58;;;-4.30;99.90;;;-4.65;65.05;99206.13;4943021;28;20034;-80
2022/01/07 08:48:33;;;;;;;135.50;55.00;;;-4.20;99.90;;;-4.63;64.94;99206.81;4971731;28;20134;-80
2022/01/07 08:50:59;;;;;;;148.50;62.15;;;-4.10;99.90;;;-4.42;64.94;99213.41;4925739;28;20137;-80
2022/01/07 08:53:25;;;;;;;147.20;58.58;;;-4.00;99.90;;;-4.37;64.52;99211.09;4971318;28;20053;-80
2022/01/07 08:55:51;;;;;;;143.15;61.28;;;-3.90;99.90;;;-4.20;64.54;99212.72;4971239;28;20072;-80
2022/01/07 08:58:17;;;;;;;145.68;57.33;;;-3.70;99.90;;;-4.15;65.34;99207.75;4954923;28;20137;-79
2022/01/07 09:00:43;;;;;;;125.43;54.75;;;-3.60;99.90;;;-3.99;65.45;99201.56;4956146;28;20504;-79
2022/01/07 09:03:09;;;;;;;118.15;49.25;;;-3.50;99.90;;;-3.83;65.51;99203.34;4953493;28;20053;-79
2022/01/07 09:05:35;;;;;;;110.88;49.20;;;-3.40;99.90;;;-3.70;65.38;99189.53;4960190;28;20061;-79
2022/01/07 09:08:01;;;;;;;124.40;51.95;;;-3.20;99.90;;;-3.55;65.15;99189.63;4952972;28;20100;-79
2022/01/07 09:10:26;;;;;;;104.80;46.70;;;-3.10;99.90;;;-3.40;65.57;99203.81;4953617;28;20050;-79
2022/01/07 09:12:53;;;;;;;86.15;37.10;;;-2.90;99.90;;;-3.26;65.75;99196.91;4953513;28;20042;-79
2022/01/07 09:15:19;;;;;;;98.18;37.70;;;-2.80;99.90;;;-3.12;65.17;99193.53;4939130;28;20064;-79
2022/01/07 09:17:45;;;;;;;94.68;37.95;;;-2.70;99.90;;;-3.00;65.13;99190.47;4954776;28;20038;-79
2022/01/07 09:20:11;;;;;;;87.45;36.97;;;-2.60;99.90;;;-2.90;64.89;99189.25;4968963;28;20062;-80
2022/01/07 09:22:38;;;;;;;87.50;37.60;;;-2.50;99.90;;;-2.77;64.92;99179.81;4951214;28;20496;-79
2022/01/07 09:25:06;;;;;;;87.05;37.17;;;-2.30;99.90;;;-2.66;65.13;99174.13;4971712;28;20053;-77
2022/01/07 09:27:33;;;;;;;74.22;27.17;;;-2.20;99.90;;;-2.52;64.91;99173.34;4966562;28;20042;-79
2022/01/07 09:29:59;;;;;;;153.98;63.42;;;-2.10;99.90;;;-2.36;64.48;99180.31;4965995;28;20573;-79
2022/01/07 09:32:24;;;;;;;83.90;38.78;;;-2.00;99.90;;;-2.19;64.51;99180.97;4970010;28;20482;-80
2022/01/07 09:34:51;;;;;;;72.75;30.95;;;-1.80;99.90;;;-2.05;64.35;99177.50;4975060;28;20564;-79
2022/01/07 09:37:17;;;;;;;72.30;29.38;;;-1.70;99.90;;;-1.90;64.20;99177.50;4963270;28;20038;-79
2022/01/07 09:39:43;;;;;;;86.82;29.88;;;-1.50;99.90;;;-1.79;64.00;99170.88;4956197;28;20488;-80
2022/01/07 09:42:09;;;;;;;62.83;28.20;;;-1.40;99.90;;;-1.67;64.26;99174.72;4955077;28;20125;-80
2022/01/07 09:44:39;;;;;;;67.85;29.50;;;-1.30;99.90;;;-1.57;64.35;99179.78;4938567;28;20442;-79
2022/01/07 09:47:06;;;;;;;75.07;28.98;;;-1.20;99.90;;;-1.49;64.33;99173.50;4937945;28;20047;-79
2022/01/07 09:49:35;;;;;;;74.25;27.27;;;-1.10;99.90;;;-1.38;64.21;99178.34;4952859;28;20414;-80
2022/01/07 09:52:01;;;;;;;71.68;29.45;;;-1.00;99.90;;;-1.33;64.27;99159.97;4953368;28;20076;-80
2022/01/07 09:54:27;;;;;;;71.80;29.45;;;-0.90;99.90;;;-1.25;64.31;99153.72;4938323;28;20081;-80
2022/01/07 09:56:53;;;;;;;68.68;29.33;;;-0.80;99.90;;;-1.17;64.37;99158.91;4950845;28;20043;-80
2022/01/07 09:59:19;;;;;;;89.32;34.47;;;-0.70;99.90;;;-1.08;63.56;99156.97;4969371;28;20549;-80
2022/01/07 10:02:06;;;;;;;91.10;40.42;;;-0.70;99.90;;;-1.00;63.78;99165.66;4953697;28;20046;-80
2022/01/07 10:04:37;;;;;;;56.15;25.95;;;-0.60;99.90;;;-0.92;63.31;99162.03;4968274;28;20094;-80
2022/01/07 10:07:21;;;;;;;62.30;23.02;;;-0.50;99.90;;;-0.79;62.90;99164.00;4971516;28;20042;-80
2022/01/07 10:10:14;;;;;;;61.22;26.27;;;-0.50;99.90;;;-0.70;62.71;99161.00;4952462;28;20108;-80
2022/01/07 10:13:04;;;;;;;63.17;28.40;;;-0.30;99.90;;;-0.63;62.11;99145.09;4953163;28;20125;-80